Time;durP1;ratioP1;P1;durP2;ratioP2;P2;SDS_P1;SDS_P2;PMS_P1;PMS_P2;Temp;Humidity;BMP_temperature;BMP_pressure;BME280_temperature;BME280_humidity;BME280_pressure;Samples;Min_cycle;Max_cycle;Signal;HPM_P1;HPM_P2
2022/10/11 00:02:14;;;;;;;7.13;1.73;;;6.90;99.90;;;;;;5072512;28;20473;-67
2022/10/11 00:04:40;;;;;;;3.25;1.40;;;7.00;99.90;;;;;;5079643;28;20135;-67
2022/10/11 00:07:06;;;;;;;4.63;1.40;;;7.00;99.90;;;;;;5083688;28;20128;-67
2022/10/11 00:09:32;;;;;;;3.58;1.35;;;6.90;99.90;;;;;;5071585;28;20101;-67
2022/10/11 00:11:57;;;;;;;6.00;1.55;;;6.90;99.90;;;;;;5088164;28;20040;-67
2022/10/11 00:14:24;;;;;;;6.07;1.30;;;6.90;99.90;;;;;;5075613;28;20044;-67
2022/10/11 00:16:50;;;;;;;4.85;1.58;;;6.90;99.90;;;;;;5079390;28;20048;-68
2022/10/11 00:19:16;;;;;;;7.72;1.85;;;6.80;99.90;;;;;;5092779;28;20119;-67
2022/10/11 00:21:41;;;;;;;5.10;2.15;;;6.80;99.90;;;;;;5077644;28;20094;-67
2022/10/11 00:24:07;;;;;;;6.60;1.83;;;6.80;99.90;;;;;;5073215;28;20487;-67
2022/10/11 00:26:33;;;;;;;4.45;1.50;;;6.80;99.90;;;;;;5088528;28;20046;-67
2022/10/11 00:28:58;;;;;;;5.63;1.40;;;6.80;99.90;;;;;;5088089;28;20113;-66
2022/10/11 00:31:24;;;;;;;5.05;1.90;;;6.80;99.90;;;;;;5074263;28;20075;-67
2022/10/11 00:33:51;;;;;;;9.15;1.40;;;6.80;99.90;;;;;;5090143;28;20039;-67
2022/10/11 00:36:17;;;;;;;4.25;1.17;;;6.80;99.90;;;;;;5076565;28;20040;-67
2022/10/11 00:38:44;;;;;;;4.50;1.67;;;6.80;99.90;;;;;;5070807;28;20080;-67
2022/10/11 00:41:10;;;;;;;6.97;1.70;;;6.80;99.90;;;;;;5077329;28;20515;-67
2022/10/11 00:43:36;;;;;;;5.22;1.48;;;6.70;99.90;;;;;;5092326;28;20100;-66
2022/10/11 00:46:06;;;;;;;5.07;1.23;;;6.70;99.90;;;;;;5081155;28;20032;-67
2022/10/11 00:48:50;;;;;;;4.88;1.33;;;6.60;99.90;;;;;;5079670;28;20051;-67
2022/10/11 00:51:20;;;;;;;5.82;1.70;;;6.50;99.90;;;;;;5071733;28;20090;-67
2022/10/11 00:53:49;;;;;;;6.68;1.30;;;6.50;99.90;;;;;;5075638;28;20116;-67
2022/10/11 00:56:24;;;;;;;5.75;1.48;;;6.40;99.90;;;;;;5092184;28;20044;-68
2022/10/11 00:58:51;;;;;;;5.80;1.50;;;7.10;99.90;;;;;;5082994;28;20040;-68
2022/10/11 01:01:16;;;;;;;3.97;1.25;;;6.70;99.90;;;;;;5071462;28;20422;-67
2022/10/11 01:03:43;;;;;;;3.40;1.50;;;6.40;99.90;;;;;;5092296;28;20048;-67
2022/10/11 01:06:09;;;;;;;4.78;1.30;;;6.40;99.90;;;;;;5083675;28;20055;-67
2022/10/11 01:08:36;;;;;;;6.97;1.55;;;6.50;99.90;;;;;;5078384;28;20040;-67
2022/10/11 01:11:02;;;;;;;5.75;1.40;;;6.40;99.90;;;;;;5090636;28;20457;-68
2022/10/11 01:13:48;;;;;;;8.35;2.17;;;6.50;99.90;;;;;;5075186;28;20048;-67
2022/10/11 01:16:28;;;;;;;4.90;2.15;;;6.40;99.90;;;;;;5088320;28;20047;-67
2022/10/11 01:19:02;;;;;;;5.40;1.52;;;6.40;99.90;;;;;;5071635;28;20048;-67
2022/10/11 01:22:00;;;;;;;2.85;1.25;;;6.40;99.90;;;;;;5083821;28;20058;-67
2022/10/11 01:24:51;;;;;;;3.58;1.15;;;6.40;99.90;;;;;;5045431;28;20052;-67
2022/10/11 01:27:38;;;;;;;7.22;2.03;;;6.40;99.90;;;;;;5070024;28;20072;-67
2022/10/11 01:30:14;;;;;;;3.35;1.30;;;6.40;99.90;;;;;;5071577;28;20115;-67
2022/10/11 01:32:49;;;;;;;2.22;1.10;;;6.40;99.90;;;;;;5069860;28;20044;-67
2022/10/11 01:35:44;;;;;;;5.72;1.40;;;6.40;99.90;;;;;;5081821;28;20499;-67
2022/10/11 01:38:21;;;;;;;5.80;1.48;;;6.40;99.90;;;;;;5080979;28;20052;-67
2022/10/11 01:40:55;;;;;;;3.88;1.73;;;6.30;99.90;;;;;;5084914;28;20040;-66
2022/10/11 01:43:22;;;;;;;5.13;1.73;;;6.30;99.90;;;;;;5070189;28;20044;-67
2022/10/11 01:45:51;;;;;;;3.78;1.40;;;6.30;99.90;;;;;;5072501;28;20489;-66
2022/10/11 01:48:16;;;;;;;5.95;1.40;;;6.60;99.90;;;;;;5074822;28;20401;-67
2022/10/11 01:50:51;;;;;;;5.07;1.40;;;6.30;99.90;;;;;;5073701;28;20044;-67
2022/10/11 01:53:16;;;;;;;4.43;1.42;;;6.30;99.90;;;;;;5090680;28;20090;-67
2022/10/11 01:55:59;;;;;;;5.28;1.50;;;6.30;99.90;;;;;;5073976;28;20107;-67
2022/10/11 01:58:37;;;;;;;5.35;1.40;;;6.30;99.90;;;;;;5070694;28;20090;-67
2022/10/11 02:01:12;;;;;;;4.53;1.55;;;6.30;99.90;;;;;;5075931;28;20036;-67
2022/10/11 02:04:32;;;;;;;4.68;1.42;;;6.30;99.90;;;;;;5055507;28;20087;-67
2022/10/11 02:07:22;;;;;;;4.25;1.40;;;6.30;99.90;;;;;;5026275;28;20045;-67
2022/10/11 02:10:03;;;;;;;3.58;1.40;;;6.20;99.90;;;;;;5060690;28;20482;-67
2022/10/11 02:12:36;;;;;;;3.63;1.13;;;6.20;99.90;;;;;;5080472;28;20056;-68
2022/10/11 02:15:07;;;;;;;3.05;1.23;;;6.30;99.90;;;;;;5075954;28;20055;-67
2022/10/11 02:17:38;;;;;;;2.58;1.40;;;6.10;99.90;;;;;;5085869;28;20044;-67
2022/10/11 02:20:09;;;;;;;4.78;1.83;;;6.10;99.90;;;;;;5078510;28;20051;-67
2022/10/11 02:22:39;;;;;;;3.72;1.30;;;6.00;99.90;;;;;;5074489;28;20048;-67
2022/10/11 02:25:10;;;;;;;5.15;1.20;;;6.00;99.90;;;;;;5079434;28;20569;-67
2022/10/11 02:27:39;;;;;;;4.38;1.20;;;6.00;99.90;;;;;;5089539;28;20032;-67
2022/10/11 02:30:07;;;;;;;4.85;1.55;;;6.00;99.90;;;;;;5074561;28;20056;-68
2022/10/11 02:32:36;;;;;;;4.47;1.30;;;6.00;99.90;;;;;;5074375;28;20043;-67
2022/10/11 02:35:03;;;;;;;4.38;2.00;;;6.00;99.90;;;;;;5087221;28;20120;-68
2022/10/11 02:38:01;;;;;;;3.45;1.13;;;6.00;99.90;;;;;;5100646;28;20040;-68
2022/10/11 02:40:31;;;;;;;5.60;1.35;;;6.00;99.90;;;;;;5074720;28;20048;-67
2022/10/11 02:43:06;;;;;;;6.18;1.15;;;5.90;99.90;;;;;;5087698;28;20044;-67
2022/10/11 02:45:42;;;;;;;5.20;1.17;;;5.90;99.90;;;;;;5081120;28;20036;-67
2022/10/11 02:48:10;;;;;;;3.45;1.13;;;5.90;99.90;;;;;;5077841;28;20112;-67
2022/10/11 02:50:38;;;;;;;3.55;1.60;;;5.80;99.90;;;;;;5088965;28;20397;-67
2022/10/11 02:53:04;;;;;;;3.53;1.30;;;5.90;99.90;;;;;;5075295;28;20060;-67
2022/10/11 02:55:30;;;;;;;4.80;1.65;;;5.80;99.90;;;;;;5074182;28;20548;-66
2022/10/11 02:57:56;;;;;;;4.10;1.40;;;5.70;99.90;;;;;;5073515;28;20055;-67
2022/10/11 03:00:22;;;;;;;6.28;1.23;;;5.80;99.90;;;;;;5072830;28;20036;-66
2022/10/11 03:02:47;;;;;;;2.60;1.20;;;5.70;99.90;;;;;;5084162;28;20074;-67
2022/10/11 03:05:13;;;;;;;4.72;1.75;;;5.70;99.90;;;;;;5074185;28;20091;-67
2022/10/11 03:07:39;;;;;;;4.18;1.20;;;5.70;99.90;;;;;;5072563;28;20036;-67
2022/10/11 03:10:05;;;;;;;2.70;1.08;;;5.70;99.90;;;;;;5075152;28;20036;-67
2022/10/11 03:12:30;;;;;;;4.30;1.50;;;5.80;99.90;;;;;;5082712;28;20529;-67
2022/10/11 03:14:56;;;;;;;4.78;1.58;;;5.80;99.90;;;;;;5085072;28;20119;-67
2022/10/11 03:17:22;;;;;;;3.95;1.30;;;5.80;99.90;;;;;;5093553;28;20461;-67
2022/10/11 03:19:48;;;;;;;5.10;1.23;;;5.80;99.90;;;;;;5082085;28;20043;-67
2022/10/11 03:22:13;;;;;;;5.55;1.40;;;5.90;99.90;;;;;;5072681;28;20056;-67
2022/10/11 03:24:39;;;;;;;5.35;1.30;;;5.80;99.90;;;;;;5073034;28;20048;-67
2022/10/11 03:27:05;;;;;;;3.78;1.60;;;5.80;99.90;;;;;;5084602;28;20036;-70
2022/10/11 03:29:30;;;;;;;3.05;1.10;;;5.90;99.90;;;;;;5080242;28;20047;-67
2022/10/11 03:31:56;;;;;;;3.85;1.30;;;5.90;99.90;;;;;;5076149;28;20389;-67
2022/10/11 03:34:22;;;;;;;4.43;1.52;;;5.90;99.90;;;;;;5080191;28;20484;-67
2022/10/11 03:36:47;;;;;;;5.47;1.35;;;5.80;99.90;;;;;;5076958;28;20028;-67
2022/10/11 03:39:13;;;;;;;2.80;1.20;;;5.90;99.90;;;;;;5073942;28;20045;-67
2022/10/11 03:41:39;;;;;;;7.45;2.17;;;5.80;99.90;;;;;;5073259;28;20041;-67
2022/10/11 03:44:05;;;;;;;3.50;1.30;;;5.80;99.90;;;;;;5075737;28;20452;-67
2022/10/11 03:46:30;;;;;;;4.60;1.67;;;5.80;99.90;;;;;;5075442;28;20090;-67
2022/10/11 03:48:56;;;;;;;4.43;1.30;;;5.80;99.90;;;;;;5073259;28;20426;-67
2022/10/11 03:51:22;;;;;;;3.30;1.13;;;5.80;99.90;;;;;;5080233;28;20124;-67
2022/10/11 03:53:47;;;;;;;5.07;1.17;;;5.80;99.90;;;;;;5093881;28;20358;-67
2022/10/11 03:56:13;;;;;;;4.80;1.30;;;5.80;99.90;;;;;;5057350;28;20056;-67
2022/10/11 03:58:40;;;;;;;3.67;1.20;;;5.80;99.90;;;;;;5084319;28;20051;-67
2022/10/11 04:01:06;;;;;;;4.40;1.30;;;5.70;99.90;;;;;;5085206;28;20105;-67
2022/10/11 04:03:32;;;;;;;4.60;1.10;;;5.80;99.90;;;;;;5073097;28;20048;-67
2022/10/11 04:05:58;;;;;;;4.13;1.10;;;5.80;99.90;;;;;;5070927;28;20049;-67
2022/10/11 04:08:24;;;;;;;3.05;1.40;;;5.80;99.90;;;;;;5072813;28;20056;-67
2022/10/11 04:10:50;;;;;;;3.88;1.20;;;5.70;99.90;;;;;;5072636;28;20117;-67
2022/10/11 04:13:16;;;;;;;4.82;1.25;;;6.00;99.90;;;;;;5072643;28;20056;-67
2022/10/11 04:15:42;;;;;;;5.95;1.10;;;5.60;99.90;;;;;;5072994;28;20036;-67
2022/10/11 04:18:09;;;;;;;3.60;1.23;;;5.60;99.90;;;;;;5073201;28;20048;-67
2022/10/11 04:20:34;;;;;;;4.20;1.13;;;5.80;99.90;;;;;;5072720;28;20358;-67
2022/10/11 04:23:00;;;;;;;4.53;1.42;;;6.10;99.90;;;;;;5078106;28;20040;-67
2022/10/11 04:25:26;;;;;;;7.10;1.35;;;5.80;99.90;;;;;;5083023;28;20427;-66
2022/10/11 04:27:51;;;;;;;4.72;1.40;;;5.70;99.90;;;;;;5089510;28;20055;-68
2022/10/11 04:30:18;;;;;;;5.32;1.75;;;5.70;99.90;;;;;;5081156;28;20043;-69
2022/10/11 04:32:44;;;;;;;4.90;1.60;;;6.00;99.90;;;;;;5081604;28;20036;-67
2022/10/11 04:35:10;;;;;;;3.42;1.20;;;5.70;99.90;;;;;;5071938;28;20174;-67
2022/10/11 04:37:36;;;;;;;3.47;1.30;;;5.70;99.90;;;;;;5083231;28;20528;-67
2022/10/11 04:40:03;;;;;;;3.92;1.42;;;5.80;99.90;;;;;;5074260;28;20170;-67
2022/10/11 04:42:29;;;;;;;4.65;1.10;;;5.70;99.90;;;;;;5082319;28;20037;-67
2022/10/11 04:44:54;;;;;;;4.10;1.40;;;5.70;99.90;;;;;;5071703;28;20048;-68
2022/10/11 04:47:20;;;;;;;6.40;1.52;;;6.70;99.90;;;;;;5082760;28;20036;-68
2022/10/11 04:49:45;;;;;;;3.10;1.60;;;5.80;99.90;;;;;;5072813;28;20041;-67
2022/10/11 04:52:11;;;;;;;6.10;1.60;;;5.70;99.90;;;;;;5072000;28;20133;-67
2022/10/11 04:54:37;;;;;;;2.95;1.23;;;5.80;99.90;;;;;;5072856;28;20047;-67
2022/10/11 04:57:03;;;;;;;7.63;1.73;;;5.80;99.90;;;;;;5092389;28;20521;-68
2022/10/11 04:59:28;;;;;;;4.65;1.50;;;5.70;99.90;;;;;;5077240;28;20071;-67
2022/10/11 05:01:54;;;;;;;6.32;1.75;;;5.60;99.90;;;;;;5071748;28;20059;-68
2022/10/11 05:04:20;;;;;;;5.28;1.65;;;5.60;99.90;;;;;;5071368;28;20044;-68
2022/10/11 05:06:45;;;;;;;5.53;1.80;;;5.60;99.90;;;;;;5078322;28;20040;-68
2022/10/11 05:09:12;;;;;;;6.28;2.80;;;5.50;99.90;;;;;;5070662;28;20040;-67
2022/10/11 05:11:37;;;;;;;4.97;1.92;;;5.50;99.90;;;;;;5070286;28;20036;-67
2022/10/11 05:14:03;;;;;;;4.75;1.73;;;5.60;99.90;;;;;;5071578;28;20496;-68
2022/10/11 05:16:29;;;;;;;4.35;2.13;;;5.50;99.90;;;;;;5075035;28;20492;-68
2022/10/11 05:18:54;;;;;;;4.63;1.65;;;5.50;99.90;;;;;;5088600;28;20048;-68
2022/10/11 05:21:22;;;;;;;4.68;1.90;;;5.40;99.90;;;;;;5071290;28;20045;-67
2022/10/11 05:23:49;;;;;;;3.72;1.60;;;5.60;99.90;;;;;;5071611;28;20036;-68
2022/10/11 05:26:16;;;;;;;3.42;1.67;;;5.40;99.90;;;;;;5084215;28;20047;-68
2022/10/11 05:28:42;;;;;;;5.65;1.52;;;5.40;99.90;;;;;;5088207;28;20052;-68
2022/10/11 05:31:07;;;;;;;4.57;2.85;;;5.40;99.90;;;;;;5070380;28;20048;-67
2022/10/11 05:33:33;;;;;;;6.35;1.90;;;5.40;99.90;;;;;;5082403;28;20044;-68
2022/10/11 05:35:59;;;;;;;4.38;1.60;;;5.40;99.90;;;;;;5074937;28;20427;-67
2022/10/11 05:38:25;;;;;;;4.10;1.58;;;5.40;99.90;;;;;;5090182;28;20051;-67
2022/10/11 05:40:51;;;;;;;3.65;1.20;;;5.40;99.90;;;;;;5090670;28;20035;-67
2022/10/11 05:43:17;;;;;;;4.93;1.50;;;5.40;99.90;;;;;;5078959;28;20311;-67
2022/10/11 05:45:43;;;;;;;6.00;2.42;;;5.40;99.90;;;;;;5084264;28;20417;-68
2022/10/11 05:48:10;;;;;;;4.32;1.63;;;5.50;99.90;;;;;;5078810;28;20473;-70
2022/10/11 05:50:35;;;;;;;3.33;1.55;;;5.40;99.90;;;;;;5073249;28;20124;-69
2022/10/11 05:53:02;;;;;;;5.70;1.60;;;5.40;99.90;;;;;;5071089;28;20152;-67
2022/10/11 05:55:28;;;;;;;3.45;1.50;;;5.50;99.90;;;;;;5070330;28;20538;-67
2022/10/11 05:57:55;;;;;;;5.65;2.15;;;5.50;99.90;;;;;;5079838;28;20126;-67
2022/10/11 06:00:22;;;;;;;3.63;1.75;;;5.50;99.90;;;;;;5085327;28;20111;-68
2022/10/11 06:02:47;;;;;;;4.38;1.75;;;5.50;99.90;;;;;;5071677;28;20043;-67
2022/10/11 06:05:13;;;;;;;3.88;1.95;;;5.80;99.90;;;;;;5090742;28;20060;-69
2022/10/11 06:07:39;;;;;;;6.00;2.17;;;5.60;99.90;;;;;;5070434;28;20040;-68
2022/10/11 06:10:05;;;;;;;4.93;2.03;;;5.70;99.90;;;;;;5069615;28;20051;-67
2022/10/11 06:12:31;;;;;;;6.05;2.30;;;5.70;99.90;;;;;;5070948;28;20045;-67
2022/10/11 06:14:57;;;;;;;4.72;2.08;;;5.70;99.90;;;;;;5074420;28;20093;-67
2022/10/11 06:17:23;;;;;;;4.13;2.72;;;6.20;99.90;;;;;;5081115;28;20123;-67
2022/10/11 06:19:49;;;;;;;3.65;2.17;;;5.80;99.90;;;;;;5069887;28;20044;-68
2022/10/11 06:22:15;;;;;;;3.75;1.85;;;5.80;99.90;;;;;;5072769;28;20080;-66
2022/10/11 06:24:40;;;;;;;4.28;2.05;;;6.10;99.90;;;;;;5078249;28;20077;-59
2022/10/11 06:27:07;;;;;;;6.38;2.17;;;5.90;99.90;;;;;;5089278;28;20044;-59
2022/10/11 06:29:33;;;;;;;5.93;2.30;;;6.00;99.90;;;;;;5078614;28;20044;-61
2022/10/11 06:31:58;;;;;;;5.72;2.40;;;6.00;99.90;;;;;;5081001;28;20048;-61
2022/10/11 06:34:24;;;;;;;4.90;2.20;;;6.10;99.90;;;;;;5073526;28;20457;-60
2022/10/11 06:36:50;;;;;;;4.68;2.55;;;6.10;99.90;;;;;;5078159;28;20426;-61
2022/10/11 06:39:16;;;;;;;6.63;2.60;;;6.20;99.90;;;;;;5070553;28;20473;-61
2022/10/11 06:41:41;;;;;;;6.25;2.25;;;6.40;99.90;;;;;;5080611;28;20039;-61
2022/10/11 06:44:13;;;;;;;3.65;2.05;;;6.10;99.90;;;;;;5089710;28;20047;-61
2022/10/11 06:46:38;;;;;;;5.50;2.20;;;6.20;99.90;;;;;;5081662;28;20115;-61
2022/10/11 06:49:04;;;;;;;6.22;2.10;;;6.20;99.90;;;;;;5070625;28;20121;-60
2022/10/11 06:51:30;;;;;;;8.80;2.20;;;6.30;99.90;;;;;;5072496;28;20370;-60
2022/10/11 06:53:58;;;;;;;3.45;2.08;;;6.20;99.90;;;;;;5069475;28;20045;-60
2022/10/11 06:56:25;;;;;;;3.67;2.20;;;6.30;99.90;;;;;;5085615;28;20052;-60
2022/10/11 06:58:52;;;;;;;4.32;2.17;;;6.30;99.90;;;;;;5072740;28;20059;-60
2022/10/11 07:01:20;;;;;;;4.18;1.83;;;6.40;99.90;;;;;;5084800;28;20419;-60
2022/10/11 07:03:47;;;;;;;5.50;2.20;;;6.50;99.90;;;;;;5081543;28;20039;-60
2022/10/11 07:06:21;;;;;;;5.78;2.20;;;6.50;99.90;;;;;;5081238;28;20489;-60
2022/10/11 07:08:47;;;;;;;5.70;2.00;;;6.50;99.90;;;;;;5074155;28;20044;-61
2022/10/11 07:11:19;;;;;;;4.72;3.10;;;6.60;99.90;;;;;;5067404;28;20048;-61
2022/10/11 07:13:53;;;;;;;6.47;1.92;;;6.60;99.90;;;;;;5062999;28;20071;-61
2022/10/11 07:16:20;;;;;;;6.53;2.15;;;6.70;99.90;;;;;;5074923;28;20039;-61
2022/10/11 07:18:47;;;;;;;4.70;1.90;;;6.80;99.90;;;;;;5081761;28;20106;-61
2022/10/11 07:21:14;;;;;;;5.63;1.90;;;6.90;99.90;;;;;;5075670;28;20153;-60
2022/10/11 07:23:41;;;;;;;5.07;1.90;;;7.00;99.90;;;;;;5071342;28;20432;-61
2022/10/11 07:26:08;;;;;;;7.22;2.47;;;7.10;99.90;;;;;;5078656;28;20494;-61
2022/10/11 07:28:35;;;;;;;5.18;1.80;;;7.30;99.90;;;;;;5084937;28;20051;-60
2022/10/11 07:31:09;;;;;;;4.40;1.92;;;7.10;99.90;;;;;;5083969;28;20048;-60
2022/10/11 07:33:35;;;;;;;4.88;1.90;;;7.10;99.90;;;;;;5067274;28;20477;-60
2022/10/11 07:36:01;;;;;;;3.97;1.80;;;7.20;99.90;;;;;;5075721;28;20037;-61
2022/10/11 07:38:27;;;;;;;4.28;2.67;;;7.20;99.90;;;;;;5084461;28;20035;-61
2022/10/11 07:40:53;;;;;;;3.85;1.85;;;7.20;99.90;;;;;;5083212;28;20044;-60
2022/10/11 07:43:19;;;;;;;5.53;2.15;;;7.30;99.90;;;;;;5083276;28;20040;-61
2022/10/11 07:45:47;;;;;;;4.25;2.03;;;7.30;99.90;;;;;;5060579;28;20120;-61
2022/10/11 07:48:13;;;;;;;5.75;2.17;;;7.30;99.90;;;;;;5073066;28;20056;-60
2022/10/11 07:50:39;;;;;;;5.43;2.42;;;7.30;99.90;;;;;;5073021;28;20051;-61
2022/10/11 07:53:05;;;;;;;5.25;1.92;;;7.40;99.90;;;;;;5082619;28;20055;-62
2022/10/11 07:55:39;;;;;;;4.70;1.80;;;7.50;99.90;;;;;;5072040;28;20477;-61
2022/10/11 07:58:08;;;;;;;4.88;1.85;;;7.50;99.90;;;;;;5087092;28;20082;-61
2022/10/11 08:00:34;;;;;;;4.55;1.80;;;7.60;99.90;;;;;;5072862;28;20040;-61
2022/10/11 08:03:04;;;;;;;4.53;1.90;;;7.60;99.90;;;;;;5082573;28;20361;-61
2022/10/11 08:05:31;;;;;;;6.70;1.90;;;7.60;99.90;;;;;;5079029;28;20150;-61
2022/10/11 08:07:57;;;;;;;4.55;2.38;;;7.70;99.90;;;;;;5072759;28;20060;-61
2022/10/11 08:10:24;;;;;;;7.38;2.53;;;7.70;99.90;;;;;;5085025;28;20748;-61
2022/10/11 08:12:49;;;;;;;7.38;2.17;;;7.80;99.90;;;;;;5072196;28;20505;-62
2022/10/11 08:15:16;;;;;;;6.22;2.13;;;7.90;99.90;;;;;;5072491;28;20094;-61
2022/10/11 08:17:42;;;;;;;4.78;2.13;;;8.00;99.90;;;;;;5076681;28;20056;-62
2022/10/11 08:20:08;;;;;;;6.68;2.13;;;8.10;99.90;;;;;;5072247;28;20045;-61
2022/10/11 08:22:34;;;;;;;2.97;1.80;;;8.20;99.90;;;;;;5083689;28;20067;-62
2022/10/11 08:24:59;;;;;;;4.03;2.22;;;8.40;99.90;;;;;;5078391;28;20044;-62
2022/10/11 08:27:25;;;;;;;7.15;2.33;;;8.60;99.90;;;;;;5089449;28;20071;-61
2022/10/11 08:29:50;;;;;;;5.03;1.80;;;8.70;99.90;;;;;;5072958;28;20056;-62
2022/10/11 08:32:16;;;;;;;4.95;1.90;;;8.90;99.90;;;;;;5072863;28;20373;-61
2022/10/11 08:34:42;;;;;;;6.30;1.98;;;9.00;99.90;;;;;;5075981;28;20427;-62
2022/10/11 08:37:08;;;;;;;5.03;1.80;;;9.10;99.90;;;;;;5083070;28;20032;-62
2022/10/11 08:39:33;;;;;;;4.10;1.85;;;9.20;99.90;;;;;;5077284;28;20040;-62
2022/10/11 08:42:10;;;;;;;5.35;2.08;;;9.20;99.90;;;;;;5079985;28;20040;-61
2022/10/11 08:44:57;;;;;;;3.60;1.77;;;9.30;99.90;;;;;;5075543;28;20346;-61
2022/10/11 08:47:57;;;;;;;4.05;1.50;;;9.40;99.90;;;;;;5086160;28;20120;-61
2022/10/11 08:50:23;;;;;;;5.35;1.80;;;9.50;99.90;;;;;;5059691;28;20052;-61
2022/10/11 08:53:15;;;;;;;4.57;1.88;;;9.70;99.90;;;;;;5071172;28;20135;-61
2022/10/11 08:55:44;;;;;;;5.53;1.88;;;9.80;99.90;;;;;;5085393;28;20400;-61
2022/10/11 08:58:14;;;;;;;5.95;1.55;;;9.90;99.90;;;;;;5078606;28;20066;-62
2022/10/11 09:00:41;;;;;;;7.18;1.70;;;10.10;99.90;;;;;;5073357;28;20071;-62
2022/10/11 09:03:13;;;;;;;6.55;1.77;;;10.20;99.90;;;;;;5070238;28;20048;-62
2022/10/11 09:05:50;;;;;;;4.20;1.42;;;10.20;99.90;;;;;;5096771;27;20048;-61
2022/10/11 09:08:41;;;;;;;4.20;1.60;;;10.30;99.90;;;;;;5091668;28;20174;-62
2022/10/11 09:11:13;;;;;;;5.25;1.63;;;10.50;99.90;;;;;;5081790;28;20075;-62
2022/10/11 09:13:44;;;;;;;8.20;1.67;;;10.50;99.90;;;;;;5071086;28;20032;-62
2022/10/11 09:16:34;;;;;;;5.18;1.75;;;10.60;99.90;;;;;;5073000;28;20036;-61
2022/10/11 09:19:25;;;;;;;6.95;1.70;;;10.70;99.90;;;;;;5076123;28;20052;-62
2022/10/11 09:22:12;;;;;;;4.70;1.38;;;10.90;99.90;;;;;;5066483;28;20129;-64
2022/10/11 09:24:59;;;;;;;5.20;1.85;;;11.10;99.90;;;;;;5069553;28;20036;-62
2022/10/11 09:27:34;;;;;;;4.72;1.65;;;11.30;99.90;;;;;;5077623;28;20046;-61
2022/10/11 09:30:11;;;;;;;3.42;1.25;;;11.40;99.90;;;;;;5082386;28;20056;-62
2022/10/11 09:32:45;;;;;;;5.93;1.80;;;11.40;99.90;;;;;;5077749;28;20057;-62
2022/10/11 09:35:20;;;;;;;4.75;1.50;;;11.50;99.90;;;;;;5078104;28;20043;-61
2022/10/11 09:38:13;;;;;;;5.75;1.83;;;11.60;99.90;;;;;;5081286;28;20028;-61
2022/10/11 09:40:58;;;;;;;3.53;1.42;;;11.90;99.90;;;;;;5076457;28;20040;-62
2022/10/11 09:43:24;;;;;;;3.80;1.47;;;12.20;99.90;;;;;;5053278;28;20048;-62
2022/10/11 09:45:50;;;;;;;4.18;1.33;;;12.30;99.90;;;;;;5075369;28;20138;-62
2022/10/11 09:48:29;;;;;;;3.22;1.40;;;12.50;99.90;;;;;;5074486;28;20076;-62
2022/10/11 09:51:20;;;;;;;2.88;1.05;;;12.50;99.90;;;;;;5070718;28;20044;-62
2022/10/11 09:53:59;;;;;;;3.35;1.52;;;12.70;99.90;;;;;;5078618;28;20101;-62
2022/10/11 09:56:29;;;;;;;2.80;1.10;;;12.70;99.90;;;;;;5076051;28;20152;-62
2022/10/11 09:59:24;;;;;;;3.17;1.23;;;12.80;99.90;;;;;;5070180;28;20045;-62
2022/10/11 10:02:18;;;;;;;5.53;1.48;;;12.90;99.90;;;;;;5066977;28;20128;-62
2022/10/11 10:05:10;;;;;;;3.55;1.45;;;12.90;99.90;;;;;;5070899;28;20047;-63
2022/10/11 10:07:39;;;;;;;6.50;1.42;;;12.90;99.90;;;;;;5079478;28;20056;-62
2022/10/11 10:10:27;;;;;;;4.47;1.23;;;13.00;99.90;;;;;;5068390;28;20556;-62
2022/10/11 10:12:55;;;;;;;4.40;1.25;;;13.10;99.90;;;;;;5069257;28;20052;-61
2022/10/11 10:15:22;;;;;;;4.53;1.42;;;13.10;99.90;;;;;;5070729;28;20040;-62
2022/10/11 10:17:51;;;;;;;5.20;1.48;;;13.20;99.90;;;;;;5072915;28;20047;-62
2022/10/11 10:20:34;;;;;;;5.25;1.30;;;13.20;99.90;;;;;;5070770;28;20044;-62
2022/10/11 10:23:07;;;;;;;4.45;1.52;;;13.30;99.90;;;;;;5086619;28;20051;-62
2022/10/11 10:25:36;;;;;;;5.22;1.30;;;13.30;99.90;;;;;;5080836;28;20068;-62
2022/10/11 10:28:15;;;;;;;4.18;1.20;;;13.40;99.90;;;;;;5077268;28;20048;-62
2022/10/11 10:30:58;;;;;;;6.18;1.52;;;13.50;99.90;;;;;;5072893;28;20051;-62
2022/10/11 10:33:34;;;;;;;4.85;1.25;;;13.40;99.90;;;;;;5075130;28;20044;-62
2022/10/11 10:36:06;;;;;;;5.05;1.13;;;13.30;99.90;;;;;;5076193;28;20043;-61
2022/10/11 10:38:53;;;;;;;7.82;1.23;;;13.40;99.90;;;;;;5079490;28;20469;-61
2022/10/11 10:41:19;;;;;;;4.85;1.23;;;13.50;99.90;;;;;;5079770;28;20045;-61
2022/10/11 10:43:52;;;;;;;6.60;1.30;;;13.60;99.90;;;;;;5084276;28;20530;-62
2022/10/11 10:46:24;;;;;;;3.47;1.23;;;13.70;99.90;;;;;;5084987;28;20115;-61
2022/10/11 10:49:18;;;;;;;5.22;1.40;;;13.70;99.90;;;;;;5083613;28;20500;-62
2022/10/11 10:52:07;;;;;;;5.32;1.42;;;13.80;99.90;;;;;;5061338;28;20137;-61
2022/10/11 10:54:54;;;;;;;4.97;1.60;;;13.80;99.90;;;;;;5090936;28;20714;-61
2022/10/11 10:57:32;;;;;;;5.38;1.40;;;13.90;99.90;;;;;;5073722;28;20097;-61
2022/10/11 11:00:10;;;;;;;3.95;1.40;;;13.90;99.90;;;;;;5073476;28;20045;-61
2022/10/11 11:03:00;;;;;;;5.40;1.58;;;13.90;99.90;;;;;;5073650;28;20036;-61
2022/10/11 11:05:43;;;;;;;6.10;1.20;;;13.90;99.90;;;;;;5073655;28;20040;-61
2022/10/11 11:08:49;;;;;;;4.85;1.25;;;13.90;99.90;;;;;;5080855;28;20063;-61
2022/10/11 11:11:36;;;;;;;3.88;1.30;;;13.80;99.90;;;;;;5080575;28;20043;-62
2022/10/11 11:14:13;;;;;;;4.38;1.40;;;13.70;99.90;;;;;;5074915;28;20051;-62
2022/10/11 11:17:07;;;;;;;6.10;1.50;;;13.80;99.90;;;;;;5074730;28;20484;-62
2022/10/11 11:20:11;;;;;;;4.95;1.20;;;13.90;99.90;;;;;;5069948;28;20086;-62
2022/10/11 11:23:11;;;;;;;5.88;1.30;;;13.90;99.90;;;;;;5070081;28;20090;-62
2022/10/11 11:26:09;;;;;;;4.10;1.30;;;14.00;99.90;;;;;;5028628;28;20079;-62
2022/10/11 11:28:51;;;;;;;5.80;1.15;;;14.00;99.90;;;;;;5068137;28;20049;-63
2022/10/11 11:31:31;;;;;;;6.88;1.30;;;14.10;99.90;;;;;;5078438;28;20040;-62
2022/10/11 11:34:12;;;;;;;7.68;1.30;;;14.20;99.90;;;;;;5073460;28;20052;-62
2022/10/11 11:36:46;;;;;;;6.10;1.30;;;14.20;99.90;;;;;;5079099;28;20044;-63
2022/10/11 11:39:36;;;;;;;6.07;1.38;;;14.20;99.90;;;;;;5072551;28;20153;-64
2022/10/11 11:42:14;;;;;;;5.80;1.33;;;14.20;99.90;;;;;;5058550;28;20041;-62
2022/10/11 11:44:44;;;;;;;5.07;1.52;;;14.20;99.90;;;;;;5072340;28;20114;-62
2022/10/11 11:47:17;;;;;;;8.32;1.60;;;14.30;99.90;;;;;;5082256;28;20058;-62
2022/10/11 11:49:52;;;;;;;4.47;1.10;;;14.40;99.90;;;;;;5072772;28;20055;-61
2022/10/11 11:52:38;;;;;;;5.25;1.33;;;14.30;99.90;;;;;;5072264;28;20048;-62
2022/10/11 11:55:35;;;;;;;6.93;1.48;;;14.20;99.90;;;;;;5072923;28;20047;-62
2022/10/11 11:58:22;;;;;;;4.50;1.13;;;14.20;99.90;;;;;;5074464;28;20122;-62
2022/10/11 12:00:51;;;;;;;5.38;1.95;;;14.20;99.90;;;;;;5083308;28;20381;-62
2022/10/11 12:03:23;;;;;;;2.78;1.00;;;14.20;99.90;;;;;;5074795;28;20044;-61
2022/10/11 12:06:11;;;;;;;5.72;1.20;;;14.20;99.90;;;;;;5081282;28;20044;-62
2022/10/11 12:11:26;;;;;;;5.95;1.70;;;14.30;99.90;;;;;;4584021;22;20031;-64
2022/10/11 12:13:53;;;;;;;4.28;1.25;;;14.50;99.90;;;;;;5063736;28;20522;-65
2022/10/11 12:16:21;;;;;;;4.43;1.33;;;14.70;99.90;;;;;;5069829;28;20661;-65
2022/10/11 12:18:59;;;;;;;6.90;1.48;;;14.80;99.90;;;;;;5074455;28;20468;-65
2022/10/11 12:21:33;;;;;;;5.95;1.92;;;14.80;99.90;;;;;;5062936;28;20044;-64
2022/10/11 12:24:11;;;;;;;4.63;1.23;;;14.70;99.90;;;;;;5066466;28;20049;-65
2022/10/11 12:26:42;;;;;;;4.78;1.20;;;14.70;99.90;;;;;;5072498;28;20179;-66
2022/10/11 12:29:17;;;;;;;4.93;1.10;;;14.80;99.90;;;;;;5075881;28;20040;-65
2022/10/11 12:31:58;;;;;;;4.47;1.75;;;14.90;99.90;;;;;;5080210;28;20487;-66
2022/10/11 12:34:33;;;;;;;5.60;1.50;;;14.80;99.90;;;;;;5071502;28;20125;-64
2022/10/11 12:37:19;;;;;;;3.65;1.00;;;14.80;99.90;;;;;;5052757;28;20397;-65
2022/10/11 12:39:56;;;;;;;5.03;1.23;;;14.70;99.90;;;;;;5051343;28;20045;-65
2022/10/11 12:42:32;;;;;;;6.82;1.45;;;14.60;99.90;;;;;;5051642;28;20115;-66
2022/10/11 12:45:09;;;;;;;;;;;14.60;99.90;;;;;;5079293;28;20067;-65
2022/10/11 12:48:19;;;;;;;4.20;1.10;;;14.60;99.90;;;;;;5091384;28;19972;-65
2022/10/11 12:50:49;;;;;;;3.83;1.02;;;14.60;99.90;;;;;;5043428;28;20062;-65
2022/10/11 12:53:39;;;;;;;3.80;1.20;;;14.60;99.90;;;;;;5092034;28;20044;-65
2022/10/11 12:56:24;;;;;;;4.68;1.13;;;14.60;99.90;;;;;;5091380;28;20055;-65
2022/10/11 12:59:01;;;;;;;5.65;1.45;;;14.50;99.90;;;;;;5059390;28;20053;-66
2022/10/11 13:01:47;;;;;;;6.20;1.27;;;14.60;99.90;;;;;;5050277;28;20400;-65
2022/10/11 13:04:17;;;;;;;3.90;1.23;;;14.60;99.90;;;;;;5071733;28;20045;-66
2022/10/11 13:06:53;;;;;;;5.45;1.38;;;14.60;99.90;;;;;;5053169;28;20076;-64
2022/10/11 13:09:26;;;;;;;7.00;1.10;;;14.60;99.90;;;;;;5052602;28;20040;-64
2022/10/11 13:12:01;;;;;;;4.28;1.00;;;14.60;99.90;;;;;;5070544;28;20523;-63
2022/10/11 13:14:29;;;;;;;5.65;1.27;;;14.60;99.90;;;;;;5064362;28;20443;-64
2022/10/11 13:17:01;;;;;;;4.88;0.90;;;14.60;99.90;;;;;;5033218;28;20463;-63
2022/10/11 13:19:28;;;;;;;3.97;1.45;;;14.50;99.90;;;;;;5051037;28;20048;-65
2022/10/11 13:21:57;;;;;;;4.03;1.00;;;14.40;99.90;;;;;;5050729;28;20049;-65